createdAt,value
2018-03-21T00:00:03.756Z,97201.64
2018-03-21T00:02:29.644Z,97198.78
2018-03-21T00:04:55.497Z,97206.19
2018-03-21T00:07:21.459Z,97201.14
2018-03-21T00:09:47.346Z,97204.29
2018-03-21T00:12:16.778Z,97205.86
2018-03-21T00:14:42.633Z,97210.59
2018-03-21T00:17:12.037Z,97207.14
2018-03-21T00:19:37.895Z,97218.16
2018-03-21T00:22:05.323Z,97214.74
2018-03-21T00:24:31.223Z,97214.74
2018-03-21T00:26:59.750Z,97220.75
2018-03-21T00:29:25.611Z,97218.22
2018-03-21T00:31:54.283Z,97226.42
2018-03-21T00:34:20.196Z,97229.91
2018-03-21T00:36:48.952Z,97233.79
2018-03-21T00:39:14.836Z,97232.55
2018-03-21T00:41:40.693Z,97233.95
2018-03-21T00:44:06.587Z,97237.00
2018-03-21T00:46:32.475Z,97236.64
2018-03-21T00:49:02.104Z,97241.78
2018-03-21T00:51:27.964Z,97242.23
2018-03-21T00:53:55.462Z,97244.39
2018-03-21T00:56:21.345Z,97243.07
2018-03-21T00:58:50.275Z,97249.09
2018-03-21T01:01:16.138Z,97248.70
2018-03-21T01:03:44.900Z,97249.63
2018-03-21T01:06:10.816Z,97251.81
2018-03-21T01:08:40.418Z,97252.65
2018-03-21T01:11:06.466Z,97250.91
2018-03-21T01:13:34.581Z,97256.56
2018-03-21T01:16:00.433Z,97252.84
2018-03-21T01:18:26.323Z,97235.03
2018-03-21T01:20:52.195Z,97239.27
2018-03-21T01:23:18.113Z,97249.44
2018-03-21T01:25:47.884Z,97248.21
2018-03-21T01:28:13.739Z,97245.73
2018-03-21T01:30:40.893Z,97242.78
2018-03-21T01:33:06.789Z,97244.56
2018-03-21T01:35:35.762Z,97240.41
2018-03-21T01:38:01.677Z,97242.66
2018-03-21T01:40:31.166Z,97245.16
2018-03-21T01:42:57.076Z,97246.92
2018-03-21T01:45:25.007Z,97249.87
2018-03-21T01:47:50.870Z,97246.45
2018-03-21T01:50:19.659Z,97250.70
2018-03-21T01:52:45.541Z,97246.90
2018-03-21T01:55:11.424Z,97242.20
2018-03-21T01:57:37.323Z,97246.98
2018-03-21T02:00:03.303Z,97253.84
2018-03-21T02:02:32.400Z,97248.72
2018-03-21T02:04:58.262Z,97247.93
2018-03-21T02:07:27.884Z,97247.91
2018-03-21T02:09:53.761Z,97255.14
2018-03-21T02:12:20.860Z,97250.55
2018-03-21T02:14:46.723Z,97247.58
2018-03-21T02:17:15.558Z,97253.55
2018-03-21T02:19:42.957Z,97251.44
2018-03-21T02:22:10.582Z,97256.99
2018-03-21T02:24:36.449Z,97247.64
2018-03-21T02:27:05.950Z,97257.47
2018-03-21T02:29:31.867Z,97266.02
2018-03-21T02:31:57.706Z,97265.14
2018-03-21T02:34:23.580Z,97263.47
2018-03-21T02:36:49.453Z,97271.12
2018-03-21T02:39:18.557Z,97269.41
2018-03-21T02:41:44.419Z,97266.86
2018-03-21T02:44:13.414Z,97263.94
2018-03-21T02:46:39.276Z,97269.89
2018-03-21T02:49:06.679Z,97268.19
2018-03-21T02:51:32.691Z,97263.09
2018-03-21T02:54:01.740Z,97264.38
2018-03-21T02:56:27.631Z,97261.04
2018-03-21T02:58:57.320Z,97268.67
2018-03-21T03:01:23.197Z,97259.33
2018-03-21T03:03:50.929Z,97265.70
2018-03-21T03:06:16.807Z,97268.68
2018-03-21T03:08:42.673Z,97266.98
2018-03-21T03:11:08.528Z,97273.77
2018-03-21T03:13:34.406Z,97271.67
2018-03-21T03:16:02.186Z,97269.11
2018-03-21T03:18:28.033Z,97283.19
2018-03-21T03:20:56.735Z,97281.94
2018-03-21T03:23:22.588Z,97286.59
2018-03-21T03:25:55.280Z,97288.31
2018-03-21T03:28:21.136Z,97286.63
2018-03-21T03:30:47.012Z,97291.30
2018-03-21T03:33:12.892Z,97289.20
2018-03-21T03:35:40.934Z,97291.77
2018-03-21T03:38:06.820Z,97296.00
2018-03-21T03:40:35.790Z,97293.87
2018-03-21T03:43:01.695Z,97294.28
2018-03-21T03:45:27.558Z,97285.81
2018-03-21T03:47:53.437Z,97297.28
2018-03-21T03:50:19.318Z,97293.91
2018-03-21T03:52:48.946Z,97302.41
2018-03-21T03:55:14.803Z,97299.86
2018-03-21T03:57:42.130Z,97302.00
2018-03-21T04:00:08.038Z,97299.44
2018-03-21T04:02:36.735Z,97293.91
2018-03-21T04:05:02.612Z,97298.16
2018-03-21T04:07:31.274Z,97296.88
2018-03-21T04:09:57.141Z,97297.31
2018-03-21T04:12:26.179Z,97294.73
2018-03-21T04:14:52.061Z,97295.59
2018-03-21T04:17:20.748Z,97295.19
2018-03-21T04:19:46.641Z,97299.42
2018-03-21T04:22:12.514Z,97296.46
2018-03-21T04:24:38.377Z,97299.44
2018-03-21T04:27:04.235Z,97301.14
2018-03-21T04:29:32.735Z,97306.66
2018-03-21T04:31:58.571Z,97307.53
2018-03-21T04:34:27.749Z,97303.27
2018-03-21T04:36:53.610Z,97301.16
2018-03-21T04:39:23.224Z,97303.28
2018-03-21T04:41:49.134Z,97306.66
2018-03-21T04:44:18.632Z,97307.51
2018-03-21T04:46:44.510Z,97309.63
2018-03-21T04:49:12.123Z,97307.94
2018-03-21T04:51:37.973Z,97302.86
2018-03-21T04:54:06.518Z,97302.44
2018-03-21T04:56:32.396Z,97305.40
2018-03-21T04:58:58.283Z,97306.26
2018-03-21T05:01:24.131Z,97309.20
2018-03-21T05:03:50.023Z,97316.86
2018-03-21T05:06:19.005Z,97313.45
2018-03-21T05:08:44.864Z,97318.98
2018-03-21T05:11:12.592Z,97310.92
2018-03-21T05:13:38.447Z,97315.57
2018-03-21T05:16:07.187Z,97320.23
2018-03-21T05:18:33.023Z,97324.90
2018-03-21T05:21:01.849Z,97324.48
2018-03-21T05:23:27.748Z,97326.61
2018-03-21T05:25:56.537Z,97332.12
2018-03-21T05:28:22.397Z,97335.52
2018-03-21T05:33:19.077Z,97335.09
2018-03-21T05:35:44.936Z,97340.64
2018-03-21T05:38:10.830Z,97343.59
2018-03-21T05:40:36.672Z,97343.17
2018-03-21T05:43:03.213Z,97345.31
2018-03-21T05:45:29.062Z,97347.86
2018-03-21T05:47:57.825Z,97347.43
2018-03-21T05:50:23.704Z,97356.34
2018-03-21T05:52:52.355Z,97355.08
2018-03-21T05:55:18.285Z,97353.81
2018-03-21T05:57:47.003Z,97358.89
2018-03-21T06:00:12.905Z,97356.76
2018-03-21T06:05:09.743Z,97360.50
2018-03-21T06:07:37.233Z,97362.59
2018-03-21T06:10:03.154Z,97365.56
2018-03-21T06:12:29.047Z,97371.46
2018-03-21T06:14:54.951Z,97367.09
2018-03-21T06:17:20.844Z,97366.59
2018-03-21T06:19:50.096Z,97372.48
2018-03-21T06:22:15.946Z,97378.73
2018-03-21T06:24:43.127Z,97379.52
2018-03-21T06:27:08.977Z,97384.48
2018-03-21T06:29:37.619Z,97387.35
2018-03-21T06:32:03.552Z,97386.94
2018-03-21T06:34:32.962Z,97395.37
2018-03-21T06:36:58.847Z,97396.07
2018-03-21T06:39:27.307Z,97395.74
2018-03-21T06:41:53.179Z,97399.12
2018-03-21T06:44:22.148Z,97398.28
2018-03-21T06:46:48.002Z,97405.39
2018-03-21T06:49:13.883Z,97410.28
2018-03-21T06:51:39.762Z,97405.57
2018-03-21T06:54:05.624Z,97402.70
2018-03-21T06:56:35.217Z,97415.55
2018-03-21T06:59:01.114Z,97420.51
2018-03-21T07:01:28.634Z,97418.27
2018-03-21T07:03:54.485Z,97412.44
2018-03-21T07:06:23.194Z,97417.94
2018-03-21T07:08:49.112Z,97428.05
2018-03-21T07:11:18.800Z,97429.20
2018-03-21T07:13:57.145Z,97423.56
2018-03-21T07:16:35.694Z,97419.84
2018-03-21T07:19:01.552Z,97423.27
2018-03-21T07:21:27.425Z,97430.87
2018-03-21T07:23:53.277Z,97430.46
2018-03-21T07:26:19.149Z,97436.97
2018-03-21T07:28:45.161Z,97436.65
2018-03-21T07:31:11.069Z,97430.61
2018-03-21T07:33:36.944Z,97440.37
2018-03-21T07:36:02.793Z,97439.78
2018-03-21T07:38:28.646Z,97440.70
2018-03-21T07:40:54.505Z,97444.61
2018-03-21T07:43:20.379Z,97449.08
2018-03-21T07:45:46.264Z,97448.83
2018-03-21T07:48:12.113Z,97455.75
2018-03-21T07:50:37.971Z,97458.97
2018-03-21T07:53:03.832Z,97457.16
2018-03-21T07:55:29.725Z,97462.28
2018-03-21T07:57:55.548Z,97466.20
2018-03-21T08:00:21.387Z,97473.52
2018-03-21T08:02:47.274Z,97475.61
2018-03-21T08:05:13.123Z,97472.45
2018-03-21T08:07:38.973Z,97478.92
2018-03-21T08:10:04.837Z,97479.52
2018-03-21T08:12:30.669Z,97474.78
2018-03-21T08:14:59.463Z,97491.44
2018-03-21T08:17:25.341Z,97479.10
2018-03-21T08:19:54.746Z,97481.56
2018-03-21T08:22:20.639Z,97482.66
2018-03-21T08:24:50.216Z,97483.25
2018-03-21T08:27:16.107Z,97489.56
2018-03-21T08:29:43.292Z,97487.75
2018-03-21T08:32:09.153Z,97494.53
2018-03-21T08:34:38.342Z,97486.20
2018-03-21T08:37:04.261Z,97492.87
2018-03-21T08:39:30.154Z,97491.32
2018-03-21T08:41:55.998Z,97497.02
2018-03-21T08:44:21.872Z,97499.58
2018-03-21T08:46:51.427Z,97507.56
2018-03-21T08:49:17.331Z,97498.10
2018-03-21T08:51:44.964Z,97511.51
2018-03-21T08:54:10.822Z,97508.63
2018-03-21T08:56:39.114Z,97506.79
2018-03-21T08:59:04.996Z,97505.72
2018-03-21T09:01:34.211Z,97512.91
2018-03-21T09:04:00.066Z,97513.44
2018-03-21T09:06:29.212Z,97506.61
2018-03-21T09:08:55.082Z,97505.70
2018-03-21T09:11:24.196Z,97503.05
2018-03-21T09:13:50.099Z,97509.05
2018-03-21T09:16:15.950Z,97514.45
2018-03-21T09:18:41.823Z,97516.70
2018-03-21T09:21:07.682Z,97523.02
2018-03-21T09:23:34.829Z,97516.98
2018-03-21T09:26:00.689Z,97514.66
2018-03-21T09:28:30.480Z,97517.31
2018-03-21T09:30:56.335Z,97517.80
2018-03-21T09:33:25.871Z,97504.14
2018-03-21T09:35:51.720Z,97523.71
2018-03-21T09:38:19.099Z,97482.83
2018-03-21T09:40:44.946Z,97520.26
2018-03-21T09:43:13.656Z,97532.25
2018-03-21T09:45:39.509Z,97520.06
2018-03-21T09:48:09.304Z,97529.60
2018-03-21T09:50:35.157Z,97522.23
2018-03-21T09:53:01.024Z,97522.02
2018-03-21T09:55:26.891Z,97519.73
2018-03-21T09:57:52.738Z,97521.67
2018-03-21T10:00:22.068Z,97510.58
2018-03-21T10:02:47.943Z,97505.89
2018-03-21T10:05:15.018Z,97495.05
2018-03-21T10:07:40.925Z,97506.89
2018-03-21T10:10:10.681Z,97500.09
2018-03-21T10:12:36.567Z,97500.80
2018-03-21T10:15:04.543Z,97493.49
2018-03-21T10:17:30.417Z,97498.71
2018-03-21T10:20:00.090Z,97499.18
2018-03-21T10:22:25.911Z,97495.05
2018-03-21T10:24:55.487Z,97492.51
2018-03-21T10:27:21.342Z,97497.30
2018-03-21T10:29:47.209Z,97504.16
2018-03-21T10:32:13.054Z,97512.12
2018-03-21T10:34:38.937Z,97506.28
2018-03-21T10:37:05.456Z,97500.69
2018-03-21T10:39:31.366Z,97498.31
2018-03-21T10:42:01.000Z,97498.33
2018-03-21T10:44:26.858Z,97500.53
2018-03-21T10:46:55.949Z,97500.42
2018-03-21T10:49:21.819Z,97495.23
2018-03-21T10:51:51.346Z,97503.17
2018-03-21T10:54:17.212Z,97502.11
2018-03-21T10:56:44.959Z,97497.99
2018-03-21T10:59:10.901Z,97502.67
2018-03-21T11:01:39.904Z,97498.13
2018-03-21T11:04:05.815Z,97494.20
2018-03-21T11:06:31.704Z,97488.41
2018-03-21T11:08:57.747Z,97497.14
2018-03-21T11:11:23.635Z,97494.98
2018-03-21T11:13:50.961Z,97490.95
2018-03-21T11:16:16.834Z,97495.17
2018-03-21T11:18:46.486Z,97494.47
2018-03-21T11:21:12.366Z,97494.86
2018-03-21T11:23:40.612Z,97490.67
2018-03-21T11:26:06.456Z,97492.14
2018-03-21T11:28:35.994Z,97487.75
2018-03-21T11:31:01.830Z,97492.35
2018-03-21T11:33:31.245Z,97486.62
2018-03-21T11:35:57.133Z,97490.66
2018-03-21T11:38:24.553Z,97490.10
2018-03-21T11:40:50.427Z,97487.28
2018-03-21T11:43:16.291Z,97489.94
2018-03-21T11:45:42.142Z,97494.52
2018-03-21T11:48:08.017Z,97494.44
2018-03-21T11:50:37.721Z,97497.02
2018-03-21T11:53:03.544Z,97488.81
2018-03-21T11:55:31.117Z,97493.26
2018-03-21T11:57:56.955Z,97486.81
2018-03-21T12:00:26.488Z,97476.80
2018-03-21T12:02:52.418Z,97477.20
2018-03-21T12:05:21.468Z,97480.97
2018-03-21T12:07:47.350Z,97481.92
2018-03-21T12:10:16.459Z,97474.80
2018-03-21T12:12:43.206Z,97471.39
2018-03-21T12:15:09.839Z,97468.77
2018-03-21T12:17:35.734Z,97461.95
2018-03-21T12:20:01.613Z,97470.93
2018-03-21T12:22:27.457Z,97459.59
2018-03-21T12:24:53.306Z,97455.68
2018-03-21T12:27:23.149Z,97450.72
2018-03-21T12:29:49.014Z,97453.18
2018-03-21T12:32:16.847Z,97449.87
2018-03-21T12:34:42.754Z,97455.96
2018-03-21T12:37:12.506Z,97445.98
2018-03-21T12:39:38.372Z,97447.89
2018-03-21T12:42:05.652Z,97449.42
2018-03-21T12:44:31.596Z,97448.21
2018-03-21T12:47:00.349Z,97449.14
2018-03-21T12:49:26.238Z,97442.63
2018-03-21T12:51:55.093Z,97450.36
2018-03-21T12:54:20.946Z,97446.39
2018-03-21T12:56:46.814Z,97445.70
2018-03-21T12:59:12.707Z,97439.16
2018-03-21T13:01:38.570Z,97433.48
2018-03-21T13:04:06.975Z,97431.64
2018-03-21T13:06:32.838Z,97425.72
2018-03-21T13:09:01.903Z,97418.59
2018-03-21T13:11:27.782Z,97426.35
2018-03-21T13:13:56.725Z,97422.14
2018-03-21T13:16:22.572Z,97427.12
2018-03-21T13:18:52.062Z,97423.69
2018-03-21T13:21:17.943Z,97428.41
2018-03-21T13:23:47.230Z,97423.06
2018-03-21T13:26:13.058Z,97415.34
2018-03-21T13:28:40.347Z,97414.04
2018-03-21T13:31:06.211Z,97417.48
2018-03-21T13:33:32.072Z,97418.71
2018-03-21T13:35:57.933Z,97422.66
2018-03-21T13:38:23.797Z,97424.32
2018-03-21T13:40:52.286Z,97423.30
2018-03-21T13:43:18.140Z,97415.94
2018-03-21T13:45:47.369Z,97423.81
2018-03-21T13:48:13.405Z,97431.67
2018-03-21T13:50:42.650Z,97427.15
2018-03-21T13:53:08.530Z,97436.42
2018-03-21T13:55:37.922Z,97424.70
2018-03-21T13:58:03.806Z,97425.50
2018-03-21T14:00:31.050Z,97421.57
2018-03-21T14:02:56.910Z,97420.64
2018-03-21T14:05:26.626Z,97423.38
2018-03-21T14:07:52.452Z,97426.14
2018-03-21T14:10:18.317Z,97415.97
2018-03-21T14:12:44.173Z,97420.27
2018-03-21T14:15:10.011Z,97411.89
2018-03-21T14:17:37.775Z,97414.31
2018-03-21T14:20:03.680Z,97412.22
2018-03-21T14:22:32.843Z,97416.36
2018-03-21T14:24:58.716Z,97415.67
2018-03-21T14:27:27.970Z,97412.36
2018-03-21T14:29:53.881Z,97413.70
2018-03-21T14:32:21.886Z,97411.63
2018-03-21T14:34:47.754Z,97408.55
2018-03-21T14:37:17.102Z,97410.91
2018-03-21T14:39:42.987Z,97414.41
2018-03-21T14:45:01.971Z,97404.27
2018-03-21T14:47:27.804Z,97406.30
2018-03-21T14:49:53.670Z,97395.94
2018-03-21T14:52:19.614Z,97404.67
2018-03-21T14:54:45.636Z,97406.97
2018-03-21T14:57:11.508Z,97406.29
2018-03-21T14:59:37.446Z,97406.86
2018-03-21T15:02:03.324Z,97408.55
2018-03-21T15:04:29.195Z,97398.65
2018-03-21T15:06:55.113Z,97398.83
2018-03-21T15:09:20.995Z,97400.52
2018-03-21T15:11:46.873Z,97403.13
2018-03-21T15:14:12.751Z,97400.47
2018-03-21T15:16:38.624Z,97405.62
2018-03-21T15:19:04.513Z,97404.84
2018-03-21T15:21:30.375Z,97396.94
2018-03-21T15:23:56.296Z,97397.37
2018-03-21T15:26:22.174Z,97396.21
2018-03-21T15:28:48.033Z,97401.92
2018-03-21T15:31:13.887Z,97393.79
2018-03-21T15:33:39.763Z,97389.21
2018-03-21T15:36:05.680Z,97380.67
2018-03-21T15:38:31.541Z,97381.77
2018-03-21T15:40:57.409Z,97376.06
2018-03-21T15:43:23.269Z,97380.66
2018-03-21T15:45:52.050Z,97377.52
2018-03-21T15:48:17.889Z,97380.38
2018-03-21T15:50:46.666Z,97389.67
2018-03-21T15:53:13.485Z,97392.55
2018-03-21T15:55:41.510Z,97391.03
2018-03-21T15:58:07.382Z,97389.00
2018-03-21T16:00:33.271Z,97386.14
2018-03-21T16:02:59.157Z,97384.02
2018-03-21T16:05:25.024Z,97385.70
2018-03-21T16:07:54.689Z,97388.45
2018-03-21T16:10:20.567Z,97400.13
2018-03-21T16:12:49.832Z,97396.95
2018-03-21T16:15:15.712Z,97404.11
2018-03-21T16:17:43.458Z,97399.23
2018-03-21T16:20:09.305Z,97401.09
2018-03-21T16:22:38.617Z,97403.75
2018-03-21T16:25:04.509Z,97405.97
2018-03-21T16:27:32.347Z,97409.34
2018-03-21T16:29:58.195Z,97413.34
2018-03-21T16:32:27.092Z,97418.00
2018-03-21T16:34:52.961Z,97421.79
2018-03-21T16:37:18.806Z,97411.94
2018-03-21T16:39:44.706Z,97421.14
2018-03-21T16:42:10.591Z,97427.09
2018-03-21T16:44:39.612Z,97426.07
2018-03-21T16:47:05.510Z,97423.19
2018-03-21T16:49:33.260Z,97425.48
2018-03-21T16:51:59.137Z,97412.41
2018-03-21T16:54:27.788Z,97432.11
2018-03-21T16:56:53.632Z,97430.80
2018-03-21T16:59:22.308Z,97432.73
2018-03-21T17:01:48.165Z,97427.50
2018-03-21T17:04:16.831Z,97424.89
2018-03-21T17:06:42.680Z,97421.63
2018-03-21T17:09:08.540Z,97428.42
2018-03-21T17:11:37.464Z,97428.45
2018-03-21T17:14:03.363Z,97429.47
2018-03-21T17:16:29.217Z,97430.16
2018-03-21T17:18:55.075Z,97436.30
2018-03-21T17:21:24.860Z,97432.92
2018-03-21T17:23:50.707Z,97429.38
2018-03-21T17:26:19.656Z,97435.06
2018-03-21T17:28:45.493Z,97437.19
2018-03-21T17:31:14.754Z,97437.53
2018-03-21T17:33:40.639Z,97436.00
2018-03-21T17:36:09.773Z,97434.39
2018-03-21T17:38:35.633Z,97441.58
2018-03-21T17:41:02.717Z,97440.56
2018-03-21T17:43:28.595Z,97445.35
2018-03-21T17:45:57.318Z,97447.46
2018-03-21T17:48:23.207Z,97451.91
2018-03-21T17:50:49.034Z,97461.22
2018-03-21T17:53:14.912Z,97449.05
2018-03-21T17:55:40.834Z,97452.58
2018-03-21T17:58:09.224Z,97451.96
2018-03-21T18:00:35.110Z,97462.00
2018-03-21T18:03:03.809Z,97469.72
2018-03-21T18:05:29.633Z,97467.84
2018-03-21T18:07:58.331Z,97474.55
2018-03-21T18:10:24.207Z,97476.53
2018-03-21T18:12:52.812Z,97471.56
2018-03-21T18:15:18.903Z,97477.34
2018-03-21T18:20:15.692Z,97482.45
2018-03-21T18:22:42.734Z,97477.47
2018-03-21T18:25:08.574Z,97478.34
2018-03-21T18:27:34.452Z,97481.38
2018-03-21T18:30:00.404Z,97484.13
2018-03-21T18:32:26.286Z,97472.07
2018-03-21T18:34:55.300Z,97481.42
2018-03-21T18:37:21.177Z,97471.28
2018-03-21T18:39:50.177Z,97472.06
2018-03-21T18:42:16.054Z,97472.91
2018-03-21T18:44:45.150Z,97471.20
2018-03-21T18:47:11.059Z,97468.65
2018-03-21T18:49:38.671Z,97463.02
2018-03-21T18:52:04.566Z,97460.63
2018-03-21T18:54:33.463Z,97464.19
2018-03-21T18:56:59.357Z,97463.87
2018-03-21T18:59:28.664Z,97468.89
2018-03-21T19:01:54.514Z,97468.13
2018-03-21T19:04:20.479Z,97473.81
2018-03-21T19:06:46.325Z,97469.43
2018-03-21T19:09:12.201Z,97469.33
2018-03-21T19:11:39.793Z,97468.11
2018-03-21T19:14:05.701Z,97468.09
2018-03-21T19:16:34.428Z,97467.42
2018-03-21T19:19:00.280Z,97458.02
2018-03-21T19:21:33.023Z,97472.74
2018-03-21T19:23:58.894Z,97467.26
2018-03-21T19:26:24.835Z,97471.67
2018-03-21T19:28:50.705Z,97470.39
2018-03-21T19:31:18.873Z,97467.50
2018-03-21T19:33:44.729Z,97457.67
2018-03-21T19:36:14.046Z,97461.03
2018-03-21T19:38:39.888Z,97459.34
2018-03-21T19:41:05.753Z,97465.06
2018-03-21T19:43:31.755Z,97460.33
2018-03-21T19:45:57.613Z,97460.01
2018-03-21T19:48:25.404Z,97455.50
2018-03-21T19:50:51.296Z,97460.84
2018-03-21T19:53:19.565Z,97460.44
2018-03-21T19:55:45.454Z,97455.73
2018-03-21T19:58:14.149Z,97468.06
2018-03-21T20:00:40.033Z,97465.59
2018-03-21T20:03:08.546Z,97454.16
2018-03-21T20:05:34.455Z,97466.59
2018-03-21T20:08:02.443Z,97464.83
2018-03-21T20:10:28.367Z,97468.55
2018-03-21T20:12:54.275Z,97470.50
2018-03-21T20:15:21.094Z,97469.21
2018-03-21T20:17:47.021Z,97466.52
2018-03-21T20:20:16.158Z,97420.73
2018-03-21T20:22:42.024Z,97461.86
2018-03-21T20:25:11.006Z,97455.42
2018-03-21T20:27:36.875Z,97455.17
2018-03-21T20:30:06.754Z,97455.70
2018-03-21T20:32:32.620Z,97453.11
2018-03-21T20:35:01.570Z,97454.61
2018-03-21T20:37:27.432Z,97453.41
2018-03-21T20:39:54.642Z,97452.45
2018-03-21T20:42:20.501Z,97450.85
2018-03-21T20:44:49.666Z,97458.70
2018-03-21T20:47:15.509Z,97457.86
2018-03-21T20:49:44.429Z,97459.17
2018-03-21T20:52:10.306Z,97460.17
2018-03-21T20:54:36.234Z,97463.76
2018-03-21T20:57:02.104Z,97463.27
2018-03-21T20:59:27.965Z,97455.63
2018-03-21T21:01:57.325Z,97460.77
2018-03-21T21:04:23.217Z,97455.07
2018-03-21T21:06:52.228Z,97447.33
2018-03-21T21:09:18.101Z,97455.08
2018-03-21T21:11:45.151Z,97458.85
2018-03-21T21:14:11.036Z,97458.96
2018-03-21T21:16:39.844Z,97452.66
2018-03-21T21:19:05.722Z,97447.97
2018-03-21T21:21:34.463Z,97445.50
2018-03-21T21:24:00.360Z,97434.03
2018-03-21T21:26:29.079Z,97448.53
2018-03-21T21:28:54.913Z,97446.88
2018-03-21T21:31:20.791Z,97435.39
2018-03-21T21:33:46.663Z,97440.06
2018-03-21T21:36:12.511Z,97432.00
2018-03-21T21:38:41.909Z,97433.27
2018-03-21T21:41:07.738Z,97430.75
2018-03-21T21:43:36.913Z,97423.05
2018-03-21T21:46:02.790Z,97421.81
2018-03-21T21:48:30.405Z,97421.14
2018-03-21T21:50:56.263Z,97419.45
2018-03-21T21:53:25.437Z,97413.86
2018-03-21T21:55:51.299Z,97414.77
2018-03-21T21:58:20.688Z,97412.55
2018-03-21T22:00:46.527Z,97412.56
2018-03-21T22:03:15.416Z,97403.20
2018-03-21T22:05:41.292Z,97396.47
2018-03-21T22:08:07.166Z,97406.80
2018-03-21T22:10:33.031Z,97403.13
2018-03-21T22:12:58.914Z,97400.13
2018-03-21T22:15:26.371Z,97398.41
2018-03-21T22:17:52.271Z,97395.06
2018-03-21T22:20:21.254Z,97384.89
2018-03-21T22:22:47.140Z,97386.70
2018-03-21T22:25:16.032Z,97386.67
2018-03-21T22:27:41.926Z,97388.97
2018-03-21T22:30:10.960Z,97394.28
2018-03-21T22:32:36.846Z,97392.55
2018-03-21T22:35:05.981Z,97388.03
2018-03-21T22:37:31.816Z,97390.72
2018-03-21T22:39:59.944Z,97383.89
2018-03-21T22:42:25.821Z,97379.14
2018-03-21T22:44:51.674Z,97381.23
2018-03-21T22:47:17.529Z,97385.05
2018-03-21T22:49:43.363Z,97376.88
2018-03-21T22:52:11.582Z,97374.31
2018-03-21T22:54:37.448Z,97369.61
2018-03-21T22:57:06.124Z,97370.91
2018-03-21T22:59:31.980Z,97370.06
2018-03-21T23:02:00.873Z,97363.63
2018-03-21T23:04:26.780Z,97359.86
2018-03-21T23:06:55.537Z,97354.71
2018-03-21T23:09:21.393Z,97351.74
2018-03-21T23:11:50.220Z,97357.30
2018-03-21T23:14:16.061Z,97353.51
2018-03-21T23:16:44.937Z,97348.42
2018-03-21T23:19:10.777Z,97347.14
2018-03-21T23:21:36.634Z,97344.56
2018-03-21T23:24:02.520Z,97339.00
2018-03-21T23:26:28.396Z,97334.63
2018-03-21T23:28:57.284Z,97341.47
2018-03-21T23:31:23.152Z,97344.60
2018-03-21T23:33:52.152Z,97348.87
2018-03-21T23:36:18.068Z,97347.69
2018-03-21T23:38:47.227Z,97346.92
2018-03-21T23:41:13.109Z,97343.05
2018-03-21T23:43:42.045Z,97345.69
2018-03-21T23:46:07.892Z,97341.38
2018-03-21T23:48:36.073Z,97332.50
2018-03-21T23:51:01.986Z,97332.44
2018-03-21T23:53:31.057Z,97323.09
2018-03-21T23:55:56.927Z,97323.00
2018-03-21T23:58:22.784Z,97322.59
